Time;durP1;ratioP1;P1;durP2;ratioP2;P2;SDS_P1;SDS_P2;PMS_P1;PMS_P2;Temp;Humidity;BMP_temperature;BMP_pressure;BME280_temperature;BME280_humidity;BME280_pressure;Samples;Min_cycle;Max_cycle;Signal;HPM_P1;HPM_P2
2022/10/23 00:00:34;;;;;;;2.65;0.70;;;17.90;92.00;;;;;;5096849;28;20025;-78
2022/10/23 00:03:00;;;;;;;1.73;0.80;;;17.90;92.00;;;;;;5096863;28;20056;-78
2022/10/23 00:05:27;;;;;;;1.77;0.80;;;17.90;91.90;;;;;;5097000;28;20031;-78
2022/10/23 00:07:55;;;;;;;2.30;0.70;;;17.90;91.90;;;;;;5097172;28;20541;-79
2022/10/23 00:10:23;;;;;;;3.13;0.88;;;17.90;91.90;;;;;;5098117;28;20024;-79
2022/10/23 00:12:49;;;;;;;1.75;0.63;;;17.90;91.80;;;;;;5097664;28;20024;-80
2022/10/23 00:15:18;;;;;;;2.42;0.80;;;17.90;91.80;;;;;;5096692;28;20380;-80
2022/10/23 00:17:44;;;;;;;1.75;0.60;;;17.90;91.80;;;;;;5097814;28;20036;-78
2022/10/23 00:20:10;;;;;;;3.10;0.70;;;17.90;91.90;;;;;;5098001;28;20031;-78
2022/10/23 00:22:36;;;;;;;2.67;0.90;;;18.00;91.60;;;;;;5096198;28;20028;-78
2022/10/23 00:25:07;;;;;;;2.28;0.63;;;17.90;91.50;;;;;;5097645;28;20145;-78
2022/10/23 00:27:34;;;;;;;2.58;0.80;;;17.90;91.50;;;;;;5097637;28;20426;-78
2022/10/23 00:30:00;;;;;;;3.88;0.90;;;17.90;91.50;;;;;;5096224;28;20066;-78
2022/10/23 00:32:26;;;;;;;1.70;0.77;;;17.90;91.50;;;;;;5097772;28;20027;-78
2022/10/23 00:34:52;;;;;;;1.65;0.70;;;17.90;91.40;;;;;;5096641;28;20016;-78
2022/10/23 00:37:17;;;;;;;2.78;0.80;;;17.90;91.50;;;;;;5097612;28;20393;-78
2022/10/23 00:39:43;;;;;;;2.85;0.90;;;17.90;91.40;;;;;;5097639;28;20052;-77
2022/10/23 00:42:17;;;;;;;3.50;0.85;;;18.00;91.50;;;;;;5097247;28;20028;-78
2022/10/23 00:44:43;;;;;;;2.65;0.75;;;18.00;91.50;;;;;;5096084;28;20020;-78
2022/10/23 00:47:09;;;;;;;1.48;0.70;;;17.90;91.30;;;;;;5097003;28;20032;-78
2022/10/23 00:49:35;;;;;;;1.83;0.77;;;17.90;91.20;;;;;;5096171;28;20035;-78
2022/10/23 00:52:05;;;;;;;1.20;0.75;;;17.90;91.30;;;;;;5096286;28;20020;-78
2022/10/23 00:54:37;;;;;;;2.78;0.70;;;17.90;91.30;;;;;;5097444;28;20042;-78
2022/10/23 00:57:06;;;;;;;1.55;0.82;;;17.90;91.30;;;;;;5097004;28;20032;-79
2022/10/23 00:59:33;;;;;;;3.97;0.95;;;17.90;91.30;;;;;;5097503;28;20046;-78
2022/10/23 01:01:59;;;;;;;1.98;0.73;;;17.90;91.30;;;;;;5098615;28;20416;-78
2022/10/23 01:04:26;;;;;;;1.48;0.70;;;17.90;91.20;;;;;;5101615;28;20024;-78
2022/10/23 01:07:02;;;;;;;1.73;0.80;;;17.90;91.30;;;;;;5100110;28;20123;-78
2022/10/23 01:09:50;;;;;;;2.40;0.80;;;17.90;91.20;;;;;;5101750;28;20124;-78
2022/10/23 01:12:28;;;;;;;2.47;0.88;;;17.90;91.30;;;;;;5101244;28;20107;-78
2022/10/23 01:15:07;;;;;;;2.58;0.68;;;17.90;91.20;;;;;;5101385;28;20552;-79
2022/10/23 01:17:52;;;;;;;1.25;0.50;;;17.80;91.30;;;;;;5101344;28;20488;-77
2022/10/23 01:20:42;;;;;;;1.60;0.85;;;17.80;91.20;;;;;;5101357;28;20093;-79
2022/10/23 01:23:27;;;;;;;2.28;0.80;;;17.80;91.20;;;;;;5099087;28;20090;-79
2022/10/23 01:26:14;;;;;;;2.05;0.70;;;17.80;91.30;;;;;;5100046;28;20028;-79
2022/10/23 01:28:46;;;;;;;1.85;0.70;;;17.80;91.30;;;;;;5100054;28;20020;-78
2022/10/23 01:31:17;;;;;;;1.48;0.60;;;17.80;91.10;;;;;;5100815;28;20501;-78
2022/10/23 01:33:50;;;;;;;1.63;0.60;;;17.80;91.20;;;;;;5101138;28;20072;-78
2022/10/23 01:36:18;;;;;;;;;;;17.80;91.20;;;;;;5100105;28;20052;-78
2022/10/23 01:38:57;;;;;;;2.47;0.70;;;17.80;91.30;;;;;;5100950;28;19943;-78
2022/10/23 01:41:38;;;;;;;2.80;0.73;;;17.80;91.20;;;;;;5088748;28;20020;-79
2022/10/23 01:44:10;;;;;;;1.08;0.80;;;17.80;91.30;;;;;;5099148;28;20059;-79
2022/10/23 01:46:36;;;;;;;2.35;0.90;;;17.80;91.20;;;;;;5100681;28;20111;-79
2022/10/23 01:49:05;;;;;;;4.13;0.70;;;17.80;91.20;;;;;;5100714;28;20056;-79
2022/10/23 01:51:32;;;;;;;2.55;0.70;;;17.80;91.10;;;;;;5100924;28;20028;-79
2022/10/23 01:53:59;;;;;;;2.85;0.75;;;17.80;91.10;;;;;;5099498;28;20358;-79
2022/10/23 01:56:30;;;;;;;1.40;0.70;;;17.80;91.10;;;;;;5099305;28;20024;-79
2022/10/23 01:58:58;;;;;;;2.22;0.70;;;17.70;91.10;;;;;;5100209;28;20485;-79
2022/10/23 02:01:28;;;;;;;1.20;0.70;;;17.80;91.20;;;;;;5100436;28;20020;-80
2022/10/23 02:03:55;;;;;;;1.40;0.65;;;17.80;91.10;;;;;;5099528;28;20028;-79
2022/10/23 02:06:21;;;;;;;1.80;0.70;;;17.70;91.10;;;;;;5099309;28;20028;-79
2022/10/23 02:08:47;;;;;;;2.15;0.80;;;17.70;91.10;;;;;;5100413;28;20526;-79
2022/10/23 02:11:19;;;;;;;2.10;0.60;;;17.60;91.10;;;;;;5098967;28;20055;-79
2022/10/23 02:14:07;;;;;;;2.30;0.60;;;17.60;91.20;;;;;;5100210;28;20073;-79
2022/10/23 02:16:47;;;;;;;2.72;0.77;;;17.60;91.30;;;;;;5098819;28;20059;-79
2022/10/23 02:19:42;;;;;;;2.80;0.80;;;17.60;91.20;;;;;;5100178;28;20080;-79
2022/10/23 02:22:24;;;;;;;1.35;0.80;;;17.60;91.30;;;;;;5060299;28;20045;-79
2022/10/23 02:24:51;;;;;;;0.82;0.60;;;17.60;91.30;;;;;;5098514;28;20028;-80
2022/10/23 02:27:39;;;;;;;1.67;0.75;;;17.60;91.30;;;;;;5099785;28;20110;-80
2022/10/23 02:30:08;;;;;;;2.92;0.75;;;17.60;91.30;;;;;;5099704;28;20111;-79
2022/10/23 02:32:36;;;;;;;1.42;0.68;;;17.60;91.30;;;;;;5098479;28;20024;-79
2022/10/23 02:35:02;;;;;;;1.58;0.60;;;17.50;91.30;;;;;;5098619;28;20027;-79
2022/10/23 02:37:28;;;;;;;2.08;0.85;;;17.50;91.30;;;;;;5098429;28;20024;-79
2022/10/23 02:39:53;;;;;;;2.33;0.80;;;17.50;91.30;;;;;;5099968;28;20038;-79
2022/10/23 02:42:38;;;;;;;1.45;0.68;;;17.50;91.30;;;;;;5099408;28;20500;-78
2022/10/23 02:45:10;;;;;;;2.33;0.70;;;17.50;91.40;;;;;;5099637;28;20484;-76
2022/10/23 02:47:58;;;;;;;2.08;0.80;;;17.60;91.40;;;;;;5098282;28;20031;-77
2022/10/23 02:50:33;;;;;;;2.13;0.70;;;17.50;91.40;;;;;;5098402;28;20020;-76
2022/10/23 02:52:58;;;;;;;2.20;0.77;;;17.50;91.40;;;;;;5099830;28;20417;-77
2022/10/23 02:55:33;;;;;;;1.48;0.60;;;17.50;91.40;;;;;;5099408;28;20027;-77
2022/10/23 02:58:22;;;;;;;1.45;0.70;;;17.50;91.40;;;;;;5099325;28;20035;-76
2022/10/23 03:01:06;;;;;;;2.08;0.80;;;17.60;91.40;;;;;;5079628;28;20058;-76
2022/10/23 03:03:40;;;;;;;2.95;0.90;;;17.60;91.50;;;;;;5097879;28;20488;-78
2022/10/23 03:06:07;;;;;;;2.58;0.85;;;17.50;91.50;;;;;;5097893;28;20020;-78
2022/10/23 03:08:51;;;;;;;1.83;0.80;;;17.50;91.50;;;;;;5099087;28;20034;-81
2022/10/23 03:11:16;;;;;;;2.95;0.90;;;17.50;91.50;;;;;;5097789;28;20031;-79
2022/10/23 03:13:42;;;;;;;3.22;0.85;;;17.50;91.60;;;;;;5099080;28;20424;-79
2022/10/23 03:16:08;;;;;;;2.22;0.90;;;17.50;91.60;;;;;;5098848;28;20055;-79
2022/10/23 03:18:34;;;;;;;1.60;0.75;;;17.60;91.70;;;;;;5098929;28;20021;-79
2022/10/23 03:20:59;;;;;;;1.95;0.70;;;17.60;91.60;;;;;;5097864;28;20036;-79
2022/10/23 03:23:25;;;;;;;1.67;0.90;;;17.50;91.60;;;;;;5098166;28;20043;-79
2022/10/23 03:25:52;;;;;;;2.67;0.70;;;17.50;91.70;;;;;;5099139;28;20052;-79
2022/10/23 03:28:18;;;;;;;1.70;0.90;;;17.60;91.70;;;;;;5098934;28;20439;-78
2022/10/23 03:30:43;;;;;;;1.88;1.13;;;17.50;91.70;;;;;;5098569;28;20027;-78
2022/10/23 03:33:09;;;;;;;2.00;0.80;;;17.50;91.70;;;;;;5097554;28;20063;-78
2022/10/23 03:35:35;;;;;;;2.25;1.00;;;17.50;91.80;;;;;;5098641;28;20028;-78
2022/10/23 03:38:00;;;;;;;1.58;0.90;;;17.50;91.70;;;;;;5097262;28;20099;-78
2022/10/23 03:40:26;;;;;;;1.40;0.70;;;17.50;91.80;;;;;;5098591;28;20511;-78
2022/10/23 03:42:51;;;;;;;4.88;1.00;;;17.50;91.80;;;;;;5098219;28;20047;-78
2022/10/23 03:45:17;;;;;;;3.10;1.17;;;17.50;91.80;;;;;;5098480;28;20110;-78
2022/10/23 03:47:43;;;;;;;1.75;0.70;;;17.50;91.80;;;;;;5097525;28;20058;-78
2022/10/23 03:50:10;;;;;;;2.90;1.20;;;17.60;91.80;;;;;;5098333;28;20076;-78
2022/10/23 03:52:36;;;;;;;4.80;0.80;;;17.60;91.80;;;;;;5098501;28;20020;-78
2022/10/23 03:55:03;;;;;;;3.05;0.90;;;17.60;91.90;;;;;;5096693;28;20493;-78
2022/10/23 03:57:29;;;;;;;2.35;0.73;;;17.60;91.90;;;;;;5096985;28;20042;-78
2022/10/23 03:59:54;;;;;;;2.70;0.80;;;17.60;91.90;;;;;;5096806;28;20382;-78
2022/10/23 04:02:20;;;;;;;1.73;0.68;;;17.60;91.80;;;;;;5097136;28;20024;-78
2022/10/23 04:04:46;;;;;;;2.25;0.88;;;17.60;91.80;;;;;;5098178;28;20055;-78
2022/10/23 04:07:12;;;;;;;2.53;0.90;;;17.60;91.90;;;;;;5098073;28;20032;-82
2022/10/23 04:09:37;;;;;;;2.10;0.80;;;17.60;91.80;;;;;;5097870;28;20027;-80
2022/10/23 04:12:03;;;;;;;1.85;0.82;;;17.60;91.90;;;;;;5097958;28;20610;-82
2022/10/23 04:14:29;;;;;;;1.55;0.90;;;17.60;91.90;;;;;;5098141;28;20046;-81
2022/10/23 04:16:55;;;;;;;1.50;0.75;;;17.60;91.90;;;;;;5096373;28;20051;-81
2022/10/23 04:19:20;;;;;;;2.25;0.80;;;17.60;91.90;;;;;;5096542;28;20123;-79
2022/10/23 04:21:46;;;;;;;1.17;0.80;;;17.60;92.00;;;;;;5097707;28;20050;-79
2022/10/23 04:24:12;;;;;;;1.98;0.88;;;17.60;92.00;;;;;;5097094;28;20080;-78
2022/10/23 04:26:37;;;;;;;1.85;0.80;;;17.60;92.40;;;;;;5096674;28;20032;-75
2022/10/23 04:29:03;;;;;;;2.25;0.75;;;17.60;92.00;;;;;;5096697;28;20081;-77
2022/10/23 04:31:29;;;;;;;2.85;0.98;;;17.60;92.00;;;;;;5097594;28;20016;-77
2022/10/23 04:33:54;;;;;;;3.30;0.77;;;17.60;92.00;;;;;;5096324;28;20076;-77
2022/10/23 04:36:20;;;;;;;2.45;1.00;;;17.60;92.40;;;;;;5096046;28;20026;-77
2022/10/23 04:38:46;;;;;;;3.00;0.88;;;17.60;92.00;;;;;;5097667;28;20561;-77
2022/10/23 04:41:12;;;;;;;1.58;0.90;;;17.60;92.10;;;;;;5097599;28;20016;-77
2022/10/23 04:43:38;;;;;;;2.53;0.70;;;17.60;92.00;;;;;;5095956;28;20045;-77
2022/10/23 04:46:04;;;;;;;1.45;0.90;;;17.60;92.00;;;;;;5097342;28;20053;-77
2022/10/23 04:48:30;;;;;;;2.60;0.88;;;17.60;92.00;;;;;;5097583;28;20028;-76
2022/10/23 04:51:02;;;;;;;3.50;1.00;;;17.60;92.00;;;;;;5096212;28;21195;-77
2022/10/23 04:53:28;;;;;;;1.67;0.77;;;17.60;92.00;;;;;;5097491;28;20060;-77
2022/10/23 04:55:56;;;;;;;3.08;0.70;;;17.60;92.10;;;;;;5096223;28;20027;-77
2022/10/23 04:58:22;;;;;;;1.00;0.70;;;17.50;92.00;;;;;;5095788;28;20072;-77
2022/10/23 05:00:48;;;;;;;1.45;0.85;;;17.50;92.10;;;;;;5097391;28;20107;-77
2022/10/23 05:03:15;;;;;;;2.10;0.77;;;17.50;92.10;;;;;;5095929;28;20048;-79
2022/10/23 05:05:42;;;;;;;1.83;0.65;;;17.50;92.00;;;;;;5097301;28;20020;-79
2022/10/23 05:08:08;;;;;;;2.70;0.80;;;17.50;92.00;;;;;;5096194;28;20463;-78
2022/10/23 05:10:34;;;;;;;2.78;0.93;;;17.50;92.20;;;;;;5097326;28;20034;-77
2022/10/23 05:13:00;;;;;;;4.03;0.75;;;17.50;92.20;;;;;;5095667;28;20115;-76
2022/10/23 05:15:25;;;;;;;4.20;1.00;;;17.50;92.30;;;;;;5094697;28;20089;-77
2022/10/23 05:17:56;;;;;;;1.92;0.90;;;17.50;92.20;;;;;;5096406;28;20416;-77
2022/10/23 05:20:27;;;;;;;2.03;0.90;;;17.50;92.20;;;;;;5097328;28;20028;-77
2022/10/23 05:22:55;;;;;;;3.10;0.70;;;17.40;92.30;;;;;;5095611;28;20388;-77
2022/10/23 05:25:21;;;;;;;2.28;1.00;;;17.50;92.30;;;;;;5097375;28;20016;-77
2022/10/23 05:27:46;;;;;;;3.55;0.90;;;17.50;92.40;;;;;;5096771;28;20039;-77
2022/10/23 05:30:12;;;;;;;2.45;0.95;;;17.50;92.40;;;;;;5097212;28;20034;-77
2022/10/23 05:32:38;;;;;;;1.13;0.80;;;17.50;92.40;;;;;;5096928;28;20574;-77
2022/10/23 05:35:11;;;;;;;1.23;0.80;;;17.50;92.40;;;;;;5097116;28;20028;-77
2022/10/23 05:37:40;;;;;;;3.75;1.00;;;17.50;92.50;;;;;;5096954;28;20012;-77
2022/10/23 05:40:06;;;;;;;1.30;0.70;;;17.50;92.50;;;;;;5097012;28;20120;-77
2022/10/23 05:42:32;;;;;;;1.83;0.80;;;17.50;92.40;;;;;;5096974;28;20095;-77
2022/10/23 05:44:57;;;;;;;1.75;0.80;;;17.50;92.40;;;;;;5097033;28;20055;-77
2022/10/23 05:47:23;;;;;;;0.98;0.80;;;17.50;92.40;;;;;;5097123;28;20031;-77
2022/10/23 05:49:49;;;;;;;1.27;0.80;;;17.40;92.40;;;;;;5100959;28;20028;-77
2022/10/23 05:52:14;;;;;;;1.60;0.90;;;17.40;92.50;;;;;;5099355;28;20032;-77
2022/10/23 05:54:40;;;;;;;2.55;1.20;;;17.40;92.50;;;;;;5099489;28;20404;-77
2022/10/23 05:57:06;;;;;;;2.95;0.82;;;17.40;92.60;;;;;;5100622;28;20438;-77
2022/10/23 05:59:31;;;;;;;4.88;1.10;;;17.30;92.60;;;;;;5100975;28;20028;-77
2022/10/23 06:01:57;;;;;;;3.00;1.05;;;17.20;92.70;;;;;;5100387;28;20028;-77
2022/10/23 06:04:23;;;;;;;1.95;1.20;;;17.20;92.80;;;;;;5099256;28;20052;-78
2022/10/23 06:06:48;;;;;;;1.65;1.08;;;17.10;92.80;;;;;;5099107;28;20020;-78
2022/10/23 06:09:14;;;;;;;3.17;0.85;;;17.20;93.10;;;;;;5100481;28;20392;-78
2022/10/23 06:11:41;;;;;;;3.22;0.85;;;17.30;93.20;;;;;;5100301;28;20050;-78
2022/10/23 06:14:06;;;;;;;2.50;0.90;;;17.30;93.10;;;;;;5099112;28;20024;-78
2022/10/23 06:16:32;;;;;;;2.88;0.90;;;17.40;93.00;;;;;;5099026;28;20044;-77
2022/10/23 06:18:59;;;;;;;1.88;0.88;;;17.40;92.90;;;;;;5098968;28;20020;-78
2022/10/23 06:21:25;;;;;;;1.20;0.82;;;17.40;92.90;;;;;;5099033;28;20019;-78
2022/10/23 06:23:51;;;;;;;2.05;0.70;;;17.40;92.90;;;;;;5098899;28;20027;-78
2022/10/23 06:26:18;;;;;;;4.82;0.90;;;17.40;93.00;;;;;;5099987;28;20480;-78
2022/10/23 06:28:44;;;;;;;2.92;0.88;;;17.40;92.90;;;;;;5099919;28;20027;-78
2022/10/23 06:31:15;;;;;;;2.72;1.15;;;17.40;93.00;;;;;;5099730;28;20036;-78
2022/10/23 06:33:41;;;;;;;2.03;0.93;;;17.40;93.00;;;;;;5100046;28;20054;-78
2022/10/23 06:36:09;;;;;;;1.42;0.70;;;17.40;93.00;;;;;;5099780;28;20028;-78
2022/10/23 06:38:38;;;;;;;1.88;0.75;;;17.40;93.00;;;;;;5099827;28;20054;-78
2022/10/23 06:41:07;;;;;;;2.40;0.90;;;17.40;93.00;;;;;;5098399;28;20050;-78
2022/10/23 06:43:33;;;;;;;3.08;1.55;;;17.40;92.90;;;;;;5099567;28;20451;-78
2022/10/23 06:46:03;;;;;;;2.92;1.05;;;17.30;93.00;;;;;;5098406;28;20024;-78
2022/10/23 06:48:29;;;;;;;2.67;1.02;;;17.30;92.90;;;;;;5099616;28;20103;-78
2022/10/23 06:50:55;;;;;;;2.70;1.15;;;17.30;93.10;;;;;;5099440;28;20028;-77
2022/10/23 06:53:23;;;;;;;1.77;0.90;;;17.30;93.10;;;;;;5099523;28;20008;-77
2022/10/23 06:55:50;;;;;;;3.38;1.02;;;17.30;93.10;;;;;;5099456;28;20044;-78
2022/10/23 06:58:16;;;;;;;2.80;1.00;;;17.30;93.10;;;;;;5098205;28;20058;-79
2022/10/23 07:00:43;;;;;;;2.20;1.00;;;17.20;93.20;;;;;;5097621;28;20020;-79
2022/10/23 07:03:09;;;;;;;3.80;1.23;;;17.30;93.30;;;;;;5098054;28;20463;-78
2022/10/23 07:05:34;;;;;;;1.77;0.75;;;17.30;93.30;;;;;;5096275;28;20024;-79
2022/10/23 07:08:00;;;;;;;2.78;1.10;;;17.30;93.40;;;;;;5095823;28;20023;-79
2022/10/23 07:10:26;;;;;;;3.22;0.82;;;17.30;93.40;;;;;;5097199;28;20108;-78
2022/10/23 07:12:53;;;;;;;2.30;1.20;;;17.30;93.40;;;;;;5097071;28;20027;-78
2022/10/23 07:15:18;;;;;;;3.13;1.02;;;17.20;93.50;;;;;;5095724;28;20028;-78
2022/10/23 07:17:44;;;;;;;4.95;1.17;;;17.30;93.50;;;;;;5095753;28;20028;-76
2022/10/23 07:20:10;;;;;;;2.63;0.98;;;17.30;93.50;;;;;;5096895;28;20032;-76
2022/10/23 07:22:35;;;;;;;3.30;1.20;;;17.30;93.50;;;;;;5097867;28;20046;-76
2022/10/23 07:25:01;;;;;;;3.20;1.00;;;17.30;93.50;;;;;;5098879;28;20089;-76
2022/10/23 07:27:26;;;;;;;1.83;1.02;;;17.30;93.50;;;;;;5098756;28;20063;-77
2022/10/23 07:29:52;;;;;;;1.95;1.10;;;17.30;93.50;;;;;;5098985;28;20039;-77
2022/10/23 07:32:18;;;;;;;2.00;0.90;;;17.40;93.60;;;;;;5097819;28;20027;-77
2022/10/23 07:34:44;;;;;;;1.98;1.00;;;17.40;93.60;;;;;;5098861;28;20042;-76
2022/10/23 07:37:09;;;;;;;2.13;0.93;;;17.40;93.60;;;;;;5097380;28;20028;-77
2022/10/23 07:39:35;;;;;;;2.33;0.98;;;17.40;93.60;;;;;;5098678;28;20384;-76
2022/10/23 07:42:01;;;;;;;3.42;1.00;;;17.40;93.60;;;;;;5098537;28;20042;-76
2022/10/23 07:44:26;;;;;;;2.30;1.20;;;17.40;93.70;;;;;;5097229;28;20063;-77
2022/10/23 07:46:52;;;;;;;1.45;0.85;;;17.40;93.70;;;;;;5098623;28;20020;-76
2022/10/23 07:49:18;;;;;;;5.47;1.20;;;17.40;93.80;;;;;;5098358;28;20028;-76
2022/10/23 07:51:43;;;;;;;3.70;1.10;;;17.50;93.80;;;;;;5098605;28;20060;-77
2022/10/23 07:54:11;;;;;;;4.43;1.10;;;17.50;93.70;;;;;;5098343;28;20036;-77
2022/10/23 07:56:37;;;;;;;3.97;1.27;;;17.50;94.20;;;;;;5098213;28;20020;-77
2022/10/23 07:59:03;;;;;;;3.45;1.20;;;17.50;93.80;;;;;;5096928;28;20080;-77
2022/10/23 08:01:36;;;;;;;2.90;1.20;;;17.60;93.80;;;;;;5097119;28;20095;-77
2022/10/23 08:04:02;;;;;;;1.70;1.17;;;17.60;93.70;;;;;;5096906;28;20012;-78
2022/10/23 08:06:28;;;;;;;2.28;1.05;;;17.60;93.70;;;;;;5097659;28;20253;-80
2022/10/23 08:08:54;;;;;;;3.90;1.15;;;17.60;93.80;;;;;;5096469;28;20028;-78
2022/10/23 08:11:26;;;;;;;3.15;1.10;;;17.60;93.80;;;;;;5115545;28;20572;-78
2022/10/23 08:13:52;;;;;;;4.25;1.20;;;17.60;94.20;;;;;;5106055;28;20016;-78
2022/10/23 08:16:18;;;;;;;2.53;1.20;;;17.60;93.80;;;;;;5098883;28;20096;-78
2022/10/23 08:18:44;;;;;;;3.47;1.30;;;17.60;93.80;;;;;;5110078;28;20054;-78
2022/10/23 08:21:10;;;;;;;3.47;1.40;;;17.60;93.90;;;;;;5097607;28;20028;-78
2022/10/23 08:23:36;;;;;;;2.83;1.10;;;17.60;93.90;;;;;;5097515;28;20031;-79
2022/10/23 08:26:04;;;;;;;2.72;1.10;;;17.50;93.90;;;;;;5105858;28;20087;-77
2022/10/23 08:28:30;;;;;;;3.95;1.40;;;17.50;93.80;;;;;;5097099;28;20027;-77
2022/10/23 08:30:56;;;;;;;2.22;1.30;;;17.50;94.00;;;;;;5095539;28;20054;-78
2022/10/23 08:33:23;;;;;;;1.85;1.23;;;17.50;94.00;;;;;;5095703;28;20024;-77
2022/10/23 08:35:49;;;;;;;2.60;1.17;;;17.50;94.10;;;;;;5097563;28;20497;-76
2022/10/23 08:38:15;;;;;;;3.17;1.70;;;17.50;94.10;;;;;;5097412;28;20025;-76
2022/10/23 08:40:46;;;;;;;3.20;1.35;;;17.50;94.10;;;;;;5095601;28;20028;-76
2022/10/23 08:43:28;;;;;;;3.33;1.30;;;17.50;94.20;;;;;;5097991;28;20028;-77
2022/10/23 08:45:58;;;;;;;3.08;1.45;;;17.50;94.10;;;;;;5095008;28;20023;-71
2022/10/23 08:48:27;;;;;;;3.88;1.45;;;17.40;94.20;;;;;;5096824;28;20381;-73
2022/10/23 08:51:04;;;;;;;2.92;1.27;;;17.40;94.40;;;;;;5096863;28;20084;-68
2022/10/23 08:53:57;;;;;;;4.63;1.60;;;17.40;94.30;;;;;;5097203;28;20076;-72
2022/10/23 08:56:28;;;;;;;3.13;1.30;;;17.40;94.50;;;;;;5087560;28;20024;-70
2022/10/23 08:59:27;;;;;;;3.25;1.55;;;17.50;94.70;;;;;;5097394;28;20037;-71
2022/10/23 09:02:29;;;;;;;2.88;1.70;;;17.60;94.70;;;;;;5078551;28;20035;-71
2022/10/23 09:04:56;;;;;;;7.35;1.95;;;17.70;94.60;;;;;;5097143;28;20024;-71
2022/10/23 09:07:41;;;;;;;3.97;1.58;;;17.70;94.80;;;;;;5097469;28;20103;-71
2022/10/23 09:10:36;;;;;;;5.45;2.22;;;17.80;94.60;;;;;;5097025;28;20032;-71
2022/10/23 09:13:46;;;;;;;5.65;1.60;;;17.80;94.70;;;;;;5067183;28;20037;-68
2022/10/23 09:16:29;;;;;;;2.72;1.80;;;17.90;94.50;;;;;;5098254;28;20040;-70
2022/10/23 09:18:56;;;;;;;3.33;1.40;;;17.90;94.60;;;;;;5097213;28;20031;-71
2022/10/23 09:21:28;;;;;;;6.32;1.70;;;18.00;94.70;;;;;;5096927;28;20031;-71
2022/10/23 09:23:55;;;;;;;4.78;1.70;;;18.00;94.70;;;;;;5089119;28;20397;-71
2022/10/23 09:26:21;;;;;;;4.70;1.70;;;18.10;94.70;;;;;;5096507;28;20031;-69
2022/10/23 09:28:49;;;;;;;2.88;1.60;;;18.10;94.80;;;;;;5100936;28;20373;-71
2022/10/23 09:31:17;;;;;;;5.60;1.88;;;18.10;94.80;;;;;;5092651;28;20036;-72
2022/10/23 09:33:54;;;;;;;8.70;2.20;;;18.10;94.90;;;;;;5100861;28;20012;-71
2022/10/23 09:36:22;;;;;;;4.25;1.80;;;18.10;94.90;;;;;;5100870;28;20108;-71
2022/10/23 09:38:50;;;;;;;3.10;1.63;;;18.20;95.10;;;;;;5100542;28;20024;-71
2022/10/23 09:41:18;;;;;;;6.00;1.73;;;18.20;95.10;;;;;;5100792;28;20027;-72
2022/10/23 09:43:45;;;;;;;5.60;1.85;;;18.20;95.20;;;;;;5099217;28;20055;-69
2022/10/23 09:46:11;;;;;;;6.03;1.67;;;18.20;95.10;;;;;;5100524;28;20036;-70
2022/10/23 09:48:38;;;;;;;5.53;1.60;;;18.30;95.30;;;;;;5100591;28;20073;-70
2022/10/23 09:51:18;;;;;;;7.43;1.95;;;18.30;95.40;;;;;;5100660;28;20617;-70
2022/10/23 09:53:52;;;;;;;6.72;1.92;;;18.30;95.70;;;;;;5100287;28;20020;-70
2022/10/23 09:56:29;;;;;;;7.32;1.65;;;18.40;95.40;;;;;;5100138;28;20028;-71
2022/10/23 09:59:21;;;;;;;9.70;2.05;;;18.40;95.40;;;;;;5100620;28;20046;-70
2022/10/23 10:01:49;;;;;;;5.15;1.63;;;18.50;95.20;;;;;;5095449;28;20036;-71
2022/10/23 10:04:15;;;;;;;9.43;1.67;;;18.60;95.60;;;;;;5099158;28;20024;-71
2022/10/23 10:06:42;;;;;;;7.72;2.50;;;18.60;95.60;;;;;;5100189;28;20036;-71
2022/10/23 10:09:12;;;;;;;6.13;2.10;;;18.50;95.50;;;;;;5099109;28;20032;-71
2022/10/23 10:12:06;;;;;;;7.93;2.00;;;18.60;95.70;;;;;;5097019;28;20028;-70
2022/10/23 10:14:50;;;;;;;8.32;1.95;;;18.60;95.70;;;;;;5095608;28;20032;-71
2022/10/23 10:17:38;;;;;;;9.27;1.50;;;18.70;95.70;;;;;;5100911;28;20072;-71
2022/10/23 10:20:13;;;;;;;5.90;1.83;;;18.80;95.60;;;;;;5099673;28;20035;-71
2022/10/23 10:22:56;;;;;;;8.35;1.60;;;18.80;95.60;;;;;;5098713;28;20067;-70
2022/10/23 10:25:46;;;;;;;7.55;2.63;;;18.80;95.30;;;;;;5088830;28;20395;-71
2022/10/23 10:28:37;;;;;;;8.07;2.10;;;18.90;95.30;;;;;;5098682;28;20057;-71
2022/10/23 10:31:29;;;;;;;7.45;1.83;;;18.90;95.20;;;;;;5090604;28;20032;-73
2022/10/23 10:34:42;;;;;;;10.48;2.70;;;18.90;95.00;;;;;;5099551;28;20468;-70
2022/10/23 10:37:38;;;;;;;8.35;1.92;;;18.90;95.00;;;;;;5099340;28;20029;-71
2022/10/23 10:40:34;;;;;;;6.07;1.90;;;19.10;95.10;;;;;;5099575;28;20032;-72
2022/10/23 10:43:08;;;;;;;8.70;1.85;;;19.10;94.90;;;;;;5099220;28;20487;-70
2022/10/23 10:45:46;;;;;;;7.70;1.45;;;19.30;94.60;;;;;;5098765;28;20028;-71
2022/10/23 10:48:11;;;;;;;6.50;1.67;;;19.20;94.50;;;;;;5099498;28;20024;-71
2022/10/23 10:50:40;;;;;;;6.28;1.67;;;19.40;94.50;;;;;;5099358;28;20024;-71
2022/10/23 10:53:36;;;;;;;6.78;1.60;;;19.40;94.40;;;;;;5099315;28;20020;-71
2022/10/23 10:56:03;;;;;;;9.82;2.05;;;19.50;94.30;;;;;;5088484;28;20073;-71
2022/10/23 10:58:47;;;;;;;7.88;1.50;;;19.50;94.20;;;;;;5098646;28;20026;-71
2022/10/23 11:01:16;;;;;;;;;;;19.60;94.20;;;;;;5099797;28;20042;-71
2022/10/23 11:04:03;;;;;;;9.60;1.60;;;19.70;94.40;;;;;;5096599;28;19904;-71
2022/10/23 11:06:33;;;;;;;8.05;1.50;;;19.70;94.20;;;;;;5094508;28;20020;-71
2022/10/23 11:09:03;;;;;;;8.82;1.30;;;19.90;93.80;;;;;;5097889;28;20028;-71
2022/10/23 11:11:39;;;;;;;8.35;1.30;;;19.90;93.40;;;;;;5098724;28;20392;-71
2022/10/23 11:14:13;;;;;;;6.57;1.38;;;20.00;93.20;;;;;;5099797;28;20464;-71
2022/10/23 11:16:41;;;;;;;6.78;1.15;;;20.10;93.00;;;;;;5097416;28;20051;-71
2022/10/23 11:19:22;;;;;;;4.88;1.40;;;20.10;92.80;;;;;;5098867;28;20456;-71
2022/10/23 11:22:01;;;;;;;6.18;1.10;;;20.20;92.70;;;;;;5097551;28;20016;-71
2022/10/23 11:25:04;;;;;;;6.05;1.40;;;20.30;92.00;;;;;;5098847;28;20032;-71
2022/10/23 11:27:59;;;;;;;5.88;1.00;;;20.30;91.10;;;;;;5098638;28;20020;-71
2022/10/23 11:30:35;;;;;;;5.10;1.15;;;20.30;91.60;;;;;;5094798;28;20123;-71
2022/10/23 11:33:38;;;;;;;5.25;1.05;;;20.40;91.30;;;;;;5097379;28;20503;-71
2022/10/23 11:36:18;;;;;;;8.75;1.50;;;20.40;91.40;;;;;;5098482;28;20095;-71
2022/10/23 11:38:47;;;;;;;5.88;1.20;;;20.50;90.30;;;;;;5097045;28;20076;-71
2022/10/23 11:41:26;;;;;;;6.47;1.27;;;20.60;89.60;;;;;;5085101;28;20499;-71
2022/10/23 11:43:54;;;;;;;7.07;1.10;;;20.60;89.90;;;;;;5098497;28;20024;-71
2022/10/23 11:46:25;;;;;;;4.40;0.98;;;20.70;89.30;;;;;;5097735;28;20473;-71
2022/10/23 11:48:54;;;;;;;5.72;1.20;;;20.60;85.40;;;;;;5097104;28;20024;-71
2022/10/23 11:51:39;;;;;;;5.90;1.50;;;20.60;85.30;;;;;;5098376;28;20028;-71
2022/10/23 11:54:05;;;;;;;7.53;1.75;;;20.60;86.30;;;;;;5096949;28;20381;-71
2022/10/23 11:56:33;;;;;;;6.30;1.40;;;20.60;83.40;;;;;;5098020;28;20078;-71
2022/10/23 11:59:22;;;;;;;6.38;2.33;;;20.50;85.00;;;;;;5096883;28;20030;-71
2022/10/23 12:01:50;;;;;;;7.85;1.50;;;20.40;85.30;;;;;;5096843;28;20028;-71
2022/10/23 12:04:22;;;;;;;9.55;2.20;;;20.20;84.60;;;;;;5097150;28;20042;-71
2022/10/23 12:07:01;;;;;;;4.63;1.38;;;20.10;85.60;;;;;;5096781;28;20032;-71
2022/10/23 12:09:36;;;;;;;4.35;1.00;;;20.10;87.00;;;;;;5098137;28;20106;-71
2022/10/23 12:12:07;;;;;;;8.88;1.65;;;20.10;86.90;;;;;;5098048;28;20061;-71
2022/10/23 12:14:45;;;;;;;8.82;2.63;;;20.10;86.40;;;;;;5097127;28;20055;-70
2022/10/23 12:17:38;;;;;;;7.22;2.15;;;20.10;87.00;;;;;;5097481;28;20065;-75
2022/10/23 12:20:07;;;;;;;;;;;20.10;87.50;;;;;;5081818;28;20032;-70
2022/10/23 12:22:54;;;;;;;7.70;1.52;;;20.00;88.40;;;;;;5096331;28;19951;-77
2022/10/23 12:25:48;;;;;;;7.47;1.55;;;19.90;88.90;;;;;;5100387;28;20510;-72
2022/10/23 12:28:35;;;;;;;10.70;1.80;;;19.80;89.60;;;;;;5099872;28;20505;-70
2022/10/23 12:31:19;;;;;;;4.95;1.50;;;19.70;90.50;;;;;;5097582;28;20032;-76
2022/10/23 12:34:05;;;;;;;11.80;2.10;;;19.70;90.30;;;;;;5098229;28;20122;-75
2022/10/23 12:36:34;;;;;;;6.10;1.90;;;19.60;90.30;;;;;;5097550;28;20016;-70
2022/10/23 12:38:59;;;;;;;13.45;2.40;;;19.60;90.50;;;;;;5097390;28;20025;-69
2022/10/23 12:41:28;;;;;;;5.82;1.08;;;19.60;90.60;;;;;;5102069;28;20076;-68
2022/10/23 12:44:00;;;;;;;4.53;1.20;;;19.70;87.70;;;;;;5102849;28;20110;-69
2022/10/23 12:46:29;;;;;;;5.68;1.00;;;19.60;85.20;;;;;;5096761;28;20020;-70
2022/10/23 12:48:55;;;;;;;3.88;1.10;;;19.60;84.20;;;;;;5096084;28;20020;-69
2022/10/23 12:51:34;;;;;;;4.97;0.75;;;19.60;83.80;;;;;;5097363;28;20036;-70
2022/10/23 12:54:01;;;;;;;3.90;0.63;;;19.60;84.70;;;;;;5097354;28;20107;-69
2022/10/23 12:56:32;;;;;;;4.82;1.13;;;19.60;82.80;;;;;;5097241;28;20024;-68
2022/10/23 12:59:00;;;;;;;5.30;1.00;;;19.40;80.10;;;;;;5097315;28;20395;-69
2022/10/23 13:01:31;;;;;;;3.83;1.00;;;19.40;80.40;;;;;;5095966;28;20063;-70
2022/10/23 13:04:09;;;;;;;3.65;1.08;;;19.40;81.00;;;;;;5097744;28;20020;-72
2022/10/23 13:06:36;;;;;;;3.35;0.80;;;19.40;82.80;;;;;;5095619;28;20024;-70
2022/10/23 13:09:03;;;;;;;6.82;0.88;;;19.30;80.80;;;;;;5095644;28;20085;-68